Bowmanville, Canada
Current Conditions -  °F | °C
As of 1:00 PM on Saturday 25 Oct 2014 (Local Time) from CYOO Reporting Station
Overcast Overcast  
Wind Chill: 57°   Ceiling: 4100
Heat Index: 57°   Visibility: 9mi
Dew Point: 50°   Wind: 7mph
Humidity: 77%   Direction: 220°SW
Pressure: 29.6"   Gusts: NA
Location:  43.91°N, 78.69°W
Report Text: CYOO 251700Z AUTO 22006KT 9SM OVC041 14/10 A2960 RMK SLP025 DENSITY ALT 700FT
Loading
Personal Weather Stations






























Interactive Weather Map New forecast layout! Learn more

10-Day Weather Forecast

Advertisements
Track Severe Weather on mobile